Time;durP1;ratioP1;P1;durP2;ratioP2;P2;SDS_P1;SDS_P2;PMS_P1;PMS_P2;Temp;Humidity;BMP_temperature;BMP_pressure;BME280_temperature;BME280_humidity;BME280_pressure;Samples;Min_cycle;Max_cycle;Signal;HPM_P1;HPM_P2
2023/09/02 00:01:58;;;;;;;5.23;3.80;;;;;;;15.49;100.00;98305.25;5014772;28;20241;-79
2023/09/02 00:04:24;;;;;;;6.70;3.70;;;;;;;15.44;100.00;98311.00;5015019;28;20243;-79
2023/09/02 00:06:51;;;;;;;4.67;3.40;;;;;;;15.37;100.00;98299.19;5015103;28;20209;-78
2023/09/02 00:09:17;;;;;;;4.97;3.17;;;;;;;15.36;100.00;98302.81;5014818;28;20205;-77
2023/09/02 00:11:43;;;;;;;4.53;3.57;;;;;;;15.31;100.00;98302.34;5014487;28;20225;-80
2023/09/02 00:14:10;;;;;;;5.33;3.83;;;;;;;15.30;100.00;98300.66;5017310;28;20209;-79
2023/09/02 00:16:38;;;;;;;5.43;3.40;;;;;;;15.30;100.00;98302.44;5017694;28;20221;-79
2023/09/02 00:19:04;;;;;;;5.37;3.40;;;;;;;15.27;100.00;98311.53;5016914;28;20235;-77
2023/09/02 00:21:32;;;;;;;5.20;3.50;;;;;;;15.23;100.00;98311.94;5017642;28;20239;-79
2023/09/02 00:24:03;;;;;;;5.20;3.80;;;;;;;15.23;100.00;98314.59;5017193;28;20252;-77
2023/09/02 00:26:30;;;;;;;4.20;3.33;;;;;;;15.18;100.00;98312.34;5016434;28;20210;-77
2023/09/02 00:28:57;;;;;;;4.47;3.43;;;;;;;15.16;100.00;98314.28;5015337;28;20224;-77
2023/09/02 00:31:23;;;;;;;5.20;3.80;;;;;;;15.16;100.00;98319.59;5014564;28;20248;-78
2023/09/02 00:33:51;;;;;;;5.23;3.47;;;;;;;15.18;100.00;98311.47;5014830;28;20213;-78
2023/09/02 00:36:17;;;;;;;4.77;3.77;;;;;;;15.19;100.00;98308.69;5014859;28;20231;-78
2023/09/02 00:38:44;;;;;;;6.70;4.50;;;;;;;15.19;100.00;98305.19;5014635;28;20243;-78
2023/09/02 00:41:17;;;;;;;4.97;3.97;;;;;;;15.19;100.00;98310.50;5014281;28;20252;-78
2023/09/02 00:43:44;;;;;;;6.23;4.00;;;;;;;15.20;100.00;98306.88;5014643;28;20679;-78
2023/09/02 00:46:10;;;;;;;5.73;4.00;;;;;;;15.25;100.00;98307.31;5014282;28;20216;-78
2023/09/02 00:48:37;;;;;;;6.47;4.23;;;;;;;15.27;100.00;98306.22;5014514;28;20663;-78
2023/09/02 00:51:05;;;;;;;6.83;4.07;;;;;;;15.29;100.00;98308.75;5013959;28;20244;-78
2023/09/02 00:53:31;;;;;;;5.17;4.17;;;;;;;15.31;100.00;98309.47;5014142;28;20205;-78
2023/09/02 00:55:58;;;;;;;4.93;3.77;;;;;;;15.34;100.00;98311.91;5014273;28;20284;-78
2023/09/02 00:58:24;;;;;;;4.70;3.63;;;;;;;15.34;100.00;98301.25;5014214;28;20237;-78
2023/09/02 01:00:51;;;;;;;4.70;3.70;;;;;;;15.29;100.00;98300.78;5014002;28;20571;-80
2023/09/02 01:03:17;;;;;;;6.80;4.13;;;;;;;15.24;100.00;98309.16;5014424;28;20232;-78
2023/09/02 01:05:44;;;;;;;4.60;3.67;;;;;;;15.25;100.00;98302.00;5014213;28;20215;-78
2023/09/02 01:08:13;;;;;;;5.83;4.20;;;;;;;15.23;100.00;98301.28;5013836;28;20206;-78
2023/09/02 01:10:40;;;;;;;5.83;3.83;;;;;;;15.20;100.00;98305.06;5013636;28;20578;-78
2023/09/02 01:13:07;;;;;;;7.63;4.50;;;;;;;15.22;100.00;98302.28;5013846;28;20222;-78
2023/09/02 01:15:33;;;;;;;5.90;4.33;;;;;;;15.22;100.00;98308.41;5013982;28;20220;-78
2023/09/02 01:18:00;;;;;;;5.37;3.83;;;;;;;15.20;100.00;98304.19;5015031;28;20216;-78
2023/09/02 01:20:35;;;;;;;4.97;3.93;;;;;;;15.21;100.00;98305.91;5014734;28;20247;-78
2023/09/02 01:23:22;;;;;;;4.83;3.70;;;;;;;15.18;100.00;98298.16;5015356;28;20209;-78
2023/09/02 01:26:12;;;;;;;4.63;3.63;;;;;;;15.16;100.00;98300.13;5015348;28;20575;-79
2023/09/02 01:28:45;;;;;;;5.50;4.30;;;;;;;15.26;100.00;98303.69;5015001;28;20623;-78
2023/09/02 01:31:15;;;;;;;6.40;4.63;;;;;;;15.24;100.00;98306.50;5015065;28;20232;-79
2023/09/02 01:33:42;;;;;;;6.63;4.27;;;;;;;15.24;100.00;98300.31;5015436;28;20200;-79
2023/09/02 01:36:12;;;;;;;8.03;4.40;;;;;;;15.25;100.00;98300.19;5014757;28;20672;-79
2023/09/02 01:38:42;;;;;;;7.10;4.10;;;;;;;15.22;100.00;98305.75;5014293;28;20233;-78
2023/09/02 01:41:10;;;;;;;7.00;4.43;;;;;;;15.19;100.00;98308.69;5014207;28;20232;-79
2023/09/02 01:43:39;;;;;;;6.77;4.20;;;;;;;15.17;100.00;98304.47;5014761;28;20236;-79
2023/09/02 01:46:08;;;;;;;5.43;4.30;;;;;;;15.14;100.00;98294.06;5014677;28;20223;-78
2023/09/02 01:48:35;;;;;;;6.67;4.10;;;;;;;15.13;100.00;98300.38;5014643;28;20220;-78
2023/09/02 01:51:03;;;;;;;5.23;4.10;;;;;;;15.11;100.00;98307.66;5014029;28;20239;-78
2023/09/02 01:53:30;;;;;;;5.70;3.97;;;;;;;15.07;100.00;98308.88;5013010;28;20703;-78
2023/09/02 01:55:57;;;;;;;7.57;3.90;;;;;;;15.04;100.00;98315.31;5014318;28;20212;-78
2023/09/02 01:58:24;;;;;;;5.83;3.83;;;;;;;15.02;100.00;98324.41;5014137;28;20581;-79
2023/09/02 02:00:51;;;;;;;4.30;3.53;;;;;;;14.98;100.00;98315.00;5013806;28;20230;-78
2023/09/02 02:03:25;;;;;;;6.37;3.97;;;;;;;14.95;100.00;98320.56;5013796;28;20220;-78
2023/09/02 02:05:54;;;;;;;7.60;4.10;;;;;;;14.95;100.00;98325.88;5013993;28;20208;-79
2023/09/02 02:08:43;;;;;;;5.73;3.90;;;;;;;14.97;100.00;98326.63;5014247;28;20220;-78
2023/09/02 02:11:12;;;;;;;6.20;4.03;;;;;;;14.95;100.00;98326.72;5013859;28;20230;-79
2023/09/02 02:13:39;;;;;;;5.40;3.70;;;;;;;14.90;100.00;98328.94;5014783;28;20223;-79
2023/09/02 02:16:05;;;;;;;4.70;3.73;;;;;;;14.87;100.00;98328.34;5014414;28;20217;-78
2023/09/02 02:18:33;;;;;;;3.87;3.27;;;;;;;14.83;100.00;98332.22;5013737;28;20648;-78
2023/09/02 02:21:02;;;;;;;6.33;3.43;;;;;;;14.81;100.00;98323.53;5013740;28;20238;-80
2023/09/02 02:23:28;;;;;;;5.50;3.43;;;;;;;14.73;100.00;98326.00;5014463;28;20215;-79
2023/09/02 02:25:59;;;;;;;5.43;3.73;;;;;;;14.67;100.00;98331.81;5014142;28;20228;-79
2023/09/02 02:28:26;;;;;;;4.47;3.80;;;;;;;14.62;100.00;98326.03;5014036;28;20213;-78
2023/09/02 02:30:52;;;;;;;6.40;3.80;;;;;;;14.57;100.00;98333.53;5013557;28;20231;-78
2023/09/02 02:33:18;;;;;;;5.13;3.87;;;;;;;14.54;100.00;98331.97;5013441;28;20221;-78
2023/09/02 02:35:46;;;;;;;5.20;3.90;;;;;;;14.56;100.00;98339.84;5013340;28;20227;-78
2023/09/02 02:38:13;;;;;;;5.10;3.93;;;;;;;14.57;100.00;98341.50;5013348;28;20211;-78
2023/09/02 02:40:39;;;;;;;5.43;3.90;;;;;;;14.52;100.00;98338.38;5012893;28;20233;-78
2023/09/02 02:43:06;;;;;;;5.03;4.13;;;;;;;14.52;100.00;98341.91;5013143;28;20228;-79
2023/09/02 02:45:32;;;;;;;6.07;4.00;;;;;;;14.52;100.00;98344.56;5013105;28;20217;-78
2023/09/02 02:47:58;;;;;;;5.50;3.93;;;;;;;14.54;100.00;98342.59;5012965;28;20628;-78
2023/09/02 02:50:25;;;;;;;5.10;3.97;;;;;;;14.56;100.00;98335.38;5012746;28;20224;-78
2023/09/02 02:52:53;;;;;;;5.03;4.00;;;;;;;14.58;100.00;98337.88;5013246;28;20220;-78
2023/09/02 02:55:19;;;;;;;7.00;4.33;;;;;;;14.59;100.00;98328.91;5013231;28;20649;-79
2023/09/02 02:57:46;;;;;;;6.07;4.10;;;;;;;14.56;100.00;98334.50;5013294;28;20306;-78
2023/09/02 03:00:13;;;;;;;5.27;4.00;;;;;;;14.54;100.00;98336.47;5012312;28;20722;-78
2023/09/02 03:02:40;;;;;;;6.57;4.13;;;;;;;14.50;100.00;98335.88;5012494;28;20699;-78
2023/09/02 03:05:08;;;;;;;5.40;3.63;;;;;;;14.48;100.00;98336.97;5012804;28;20644;-78
2023/09/02 03:07:34;;;;;;;5.80;4.00;;;;;;;14.42;100.00;98337.47;5012762;28;20216;-78
2023/09/02 03:10:03;;;;;;;5.13;3.93;;;;;;;14.33;100.00;98327.56;5012568;28;20204;-78
2023/09/02 03:12:29;;;;;;;5.40;4.00;;;;;;;14.31;100.00;98329.50;5012713;28;20212;-79
2023/09/02 03:14:55;;;;;;;4.53;3.43;;;;;;;14.32;100.00;98339.16;5012672;28;20235;-79
2023/09/02 03:17:22;;;;;;;5.20;3.97;;;;;;;14.41;100.00;98341.06;5012487;28;20212;-78
2023/09/02 03:19:49;;;;;;;5.37;4.17;;;;;;;14.50;100.00;98335.00;5012590;28;20243;-78
2023/09/02 03:22:16;;;;;;;7.07;4.40;;;;;;;14.58;100.00;98333.41;5012617;28;20233;-78
2023/09/02 03:24:42;;;;;;;7.33;4.37;;;;;;;14.67;100.00;98323.84;5012887;28;20590;-78
2023/09/02 03:27:10;;;;;;;7.83;4.23;;;;;;;14.66;100.00;98335.47;5011657;28;20209;-78
2023/09/02 03:29:36;;;;;;;5.87;4.07;;;;;;;14.66;100.00;98324.81;5011601;28;20217;-78
2023/09/02 03:32:03;;;;;;;6.13;3.67;;;;;;;14.65;100.00;98344.38;5011127;28;20320;-78
2023/09/02 03:34:29;;;;;;;6.03;4.00;;;;;;;14.63;100.00;98341.88;5011721;28;20216;-78
2023/09/02 03:36:56;;;;;;;5.43;3.70;;;;;;;14.60;100.00;98341.28;5011887;28;20211;-78
2023/09/02 03:39:22;;;;;;;5.97;3.80;;;;;;;14.55;100.00;98338.16;5011594;28;20601;-78
2023/09/02 03:41:50;;;;;;;4.13;3.63;;;;;;;14.52;100.00;98338.38;5011529;28;20240;-78
2023/09/02 03:44:19;;;;;;;3.97;3.50;;;;;;;14.46;100.00;98338.88;5011674;28;20244;-78
2023/09/02 03:46:45;;;;;;;4.83;3.33;;;;;;;14.45;100.00;98337.19;5011675;28;20580;-78
2023/09/02 03:49:12;;;;;;;4.73;3.70;;;;;;;14.44;100.00;98344.34;5011661;28;20239;-78
2023/09/02 03:51:38;;;;;;;3.93;3.33;;;;;;;14.42;100.00;98340.13;5011793;28;20327;-78
2023/09/02 03:54:06;;;;;;;5.93;3.73;;;;;;;14.37;100.00;98329.00;5011584;28;20213;-79
2023/09/02 03:56:36;;;;;;;4.43;3.00;;;;;;;14.34;100.00;98340.72;5011694;28;20766;-78
2023/09/02 03:59:03;;;;;;;4.57;3.07;;;;;;;14.33;100.00;98343.50;5011316;28;20259;-78
2023/09/02 04:01:31;;;;;;;4.83;3.37;;;;;;;14.34;100.00;98342.53;5012277;28;20737;-78
2023/09/02 04:03:58;;;;;;;4.40;3.27;;;;;;;14.32;100.00;98349.81;5015658;28;20212;-78
2023/09/02 04:06:24;;;;;;;4.27;3.13;;;;;;;14.32;100.00;98352.47;5015024;28;20585;-78
2023/09/02 04:08:51;;;;;;;4.43;3.43;;;;;;;14.26;100.00;98352.94;5014957;28;20223;-78
2023/09/02 04:11:18;;;;;;;4.73;3.50;;;;;;;14.19;100.00;98357.06;5014534;28;20235;-78
2023/09/02 04:13:44;;;;;;;4.50;3.23;;;;;;;14.16;100.00;98358.13;5014772;28;20222;-78
2023/09/02 04:16:10;;;;;;;4.80;3.30;;;;;;;14.19;100.00;98365.06;5014871;28;20219;-78
2023/09/02 04:18:38;;;;;;;5.97;3.70;;;;;;;14.15;100.00;98361.75;5014847;28;20219;-78
2023/09/02 04:21:08;;;;;;;5.57;3.60;;;;;;;14.14;100.00;98353.91;5014618;28;20240;-78
2023/09/02 04:23:35;;;;;;;5.47;3.80;;;;;;;14.11;100.00;98362.13;5015115;28;20552;-78
2023/09/02 04:26:02;;;;;;;4.70;3.70;;;;;;;14.06;100.00;98356.34;5014847;28;20676;-78
2023/09/02 04:28:28;;;;;;;5.17;3.50;;;;;;;14.06;100.00;98361.66;5014549;28;20215;-78
2023/09/02 04:30:56;;;;;;;5.43;3.63;;;;;;;14.00;100.00;98357.66;5014423;28;20233;-78
2023/09/02 04:33:23;;;;;;;4.80;3.47;;;;;;;13.98;100.00;98362.25;5015718;28;20258;-78
2023/09/02 04:35:51;;;;;;;6.00;3.50;;;;;;;13.93;100.00;98363.59;5015615;28;20315;-79
2023/09/02 04:38:18;;;;;;;4.10;3.30;;;;;;;13.85;100.00;98363.31;5015813;28;20205;-78
2023/09/02 04:40:45;;;;;;;5.83;3.60;;;;;;;13.82;100.00;98377.69;5014881;28;20718;-78
2023/09/02 04:43:13;;;;;;;4.20;3.30;;;;;;;13.84;100.00;98369.63;5015360;28;20224;-78
2023/09/02 04:45:41;;;;;;;5.00;3.40;;;;;;;13.84;100.00;98367.81;5015152;28;20295;-78
2023/09/02 04:48:09;;;;;;;6.80;3.67;;;;;;;13.85;100.00;98380.13;5015453;28;20295;-79
2023/09/02 04:50:36;;;;;;;4.97;3.87;;;;;;;13.84;100.00;98372.28;5016750;28;20326;-78
2023/09/02 04:53:05;;;;;;;5.53;3.30;;;;;;;13.85;100.00;98371.31;5017604;28;20213;-78
2023/09/02 04:55:31;;;;;;;5.23;3.80;;;;;;;13.88;100.00;98379.88;5016740;28;20217;-78
2023/09/02 04:57:59;;;;;;;5.83;3.33;;;;;;;13.92;100.00;98377.81;5016727;28;20223;-78
2023/09/02 05:00:26;;;;;;;4.83;4.07;;;;;;;13.92;100.00;98377.81;5016346;28;20255;-78
2023/09/02 05:02:54;;;;;;;3.83;3.20;;;;;;;13.94;100.00;98383.88;5016318;28;20220;-79
2023/09/02 05:05:23;;;;;;;4.50;3.00;;;;;;;13.93;100.00;98387.50;5016563;28;20211;-78
2023/09/02 05:07:50;;;;;;;3.57;3.17;;;;;;;13.90;100.00;98393.03;5016225;28;20579;-78
2023/09/02 05:10:18;;;;;;;3.80;3.20;;;;;;;13.89;100.00;98394.00;5015536;28;20231;-78
2023/09/02 05:12:44;;;;;;;2.93;2.63;;;;;;;13.92;100.00;98399.94;5014443;28;20217;-79
2023/09/02 05:15:11;;;;;;;3.70;2.97;;;;;;;13.96;100.00;98404.06;5015847;28;20219;-79
2023/09/02 05:17:38;;;;;;;2.77;2.50;;;;;;;13.99;100.00;98397.66;5015832;28;20591;-78
2023/09/02 05:20:05;;;;;;;4.03;3.10;;;;;;;14.07;100.00;98395.22;5014666;28;20239;-78
2023/09/02 05:22:33;;;;;;;4.50;3.30;;;;;;;14.15;100.00;98390.13;5015762;28;20216;-78
2023/09/02 05:24:59;;;;;;;5.50;3.13;;;;;;;14.23;100.00;98398.41;5015647;28;20223;-78
2023/09/02 05:27:27;;;;;;;5.13;3.47;;;;;;;14.32;100.00;98400.31;5015093;28;20216;-78
2023/09/02 05:29:54;;;;;;;4.37;3.20;;;;;;;14.36;100.00;98401.78;5015002;28;20209;-79
2023/09/02 05:32:20;;;;;;;5.53;3.50;;;;;;;14.48;100.00;98395.47;5014909;28;20223;-78
2023/09/02 05:34:47;;;;;;;6.03;4.03;;;;;;;14.56;100.00;98398.34;5015410;28;20214;-78
2023/09/02 05:37:14;;;;;;;4.80;4.10;;;;;;;14.69;100.00;98393.72;5014888;28;20205;-78
2023/09/02 05:39:41;;;;;;;5.10;3.97;;;;;;;14.79;100.00;98394.66;5015733;28;20414;-77
2023/09/02 05:42:07;;;;;;;6.53;3.30;;;;;;;14.84;100.00;98403.13;5013487;28;20601;-79
2023/09/02 05:44:35;;;;;;;5.60;4.03;;;;;;;14.94;100.00;98401.38;5014258;28;20213;-75
2023/09/02 05:47:02;;;;;;;5.83;3.60;;;;;;;15.03;100.00;98398.81;5012584;28;20584;-76
2023/09/02 05:49:28;;;;;;;4.20;3.53;;;;;;;15.10;100.00;98399.16;5011493;28;20351;-77
2023/09/02 05:51:55;;;;;;;5.20;3.80;;;;;;;15.18;100.00;98397.53;5012300;28;20244;-77
2023/09/02 05:54:21;;;;;;;6.70;4.17;;;;;;;15.28;100.00;98402.94;5012423;28;20330;-77
2023/09/02 05:56:48;;;;;;;5.83;4.20;;;;;;;15.32;100.00;98399.03;5012693;28;20656;-77
2023/09/02 05:59:14;;;;;;;4.93;4.00;;;;;;;15.40;100.00;98401.94;5012809;28;20592;-77
2023/09/02 06:01:44;;;;;;;4.70;4.20;;;;;;;15.44;100.00;98403.34;5012415;28;20236;-77
2023/09/02 06:04:11;;;;;;;7.30;4.30;;;;;;;15.50;100.00;98397.50;5012311;28;20319;-78
2023/09/02 06:06:37;;;;;;;4.97;3.97;;;;;;;15.59;100.00;98402.91;5012345;28;20213;-78
2023/09/02 06:09:03;;;;;;;3.93;3.40;;;;;;;15.66;100.00;98404.09;5012584;28;20229;-77
2023/09/02 06:11:30;;;;;;;4.80;4.23;;;;;;;15.73;100.00;98404.41;5012277;28;20248;-78
2023/09/02 06:13:57;;;;;;;6.93;4.17;;;;;;;15.84;100.00;98407.00;5012471;28;20216;-77
2023/09/02 06:16:23;;;;;;;6.00;3.73;;;;;;;15.92;100.00;98404.50;5012540;28;20209;-78
2023/09/02 06:18:51;;;;;;;6.93;4.30;;;;;;;16.00;100.00;98408.19;5012468;28;20216;-78
2023/09/02 06:21:18;;;;;;;4.00;3.60;;;;;;;16.08;100.00;98406.56;5013101;28;20233;-79
2023/09/02 06:23:45;;;;;;;5.20;4.20;;;;;;;16.18;100.00;98403.94;5013434;28;20683;-79
2023/09/02 06:26:12;;;;;;;5.17;3.80;;;;;;;16.28;100.00;98405.66;5014075;28;20209;-81
2023/09/02 06:28:40;;;;;;;4.57;3.73;;;;;;;16.36;100.00;98408.50;5011881;28;20201;-81
2023/09/02 06:31:07;;;;;;;3.97;3.57;;;;;;;16.45;100.00;98405.06;5012871;28;20567;-81
2023/09/02 06:33:33;;;;;;;4.30;3.27;;;;;;;16.55;100.00;98399.75;5010032;28;20267;-81
2023/09/02 06:36:09;;;;;;;4.67;3.87;;;;;;;16.62;100.00;98412.41;5013122;28;20224;-81
2023/09/02 06:38:36;;;;;;;5.20;3.63;;;;;;;16.68;100.00;98406.53;5013914;28;20688;-80
2023/09/02 06:41:09;;;;;;;4.67;3.30;;;;;;;16.74;100.00;98405.97;5014470;28;20602;-80
2023/09/02 06:43:35;;;;;;;5.13;3.83;;;;;;;16.85;100.00;98413.88;5014663;28;20209;-80
2023/09/02 06:46:09;;;;;;;9.20;3.90;;;;;;;16.96;100.00;98421.72;5014762;28;20703;-80
2023/09/02 06:48:35;;;;;;;3.67;2.70;;;;;;;16.99;100.00;98421.47;5015024;28;20589;-80
2023/09/02 06:51:03;;;;;;;3.93;3.23;;;;;;;17.09;100.00;98433.03;5012999;28;20225;-81
2023/09/02 06:53:30;;;;;;;4.90;2.97;;;;;;;17.16;100.00;98433.28;5012532;28;20526;-81
2023/09/02 06:55:56;;;;;;;3.27;2.93;;;;;;;17.21;100.00;98431.91;5012067;28;20220;-81
2023/09/02 06:58:23;;;;;;;3.95;3.25;;;;;;;17.33;100.00;98445.97;5012183;28;20431;-80
2023/09/02 07:00:49;;;;;;;3.60;3.07;;;;;;;17.38;100.00;98446.41;5013161;28;20613;-82
2023/09/02 07:03:16;;;;;;;3.37;2.60;;;;;;;17.47;100.00;98442.88;5013380;28;20221;-82
2023/09/02 07:05:42;;;;;;;5.63;3.13;;;;;;;17.54;100.00;98455.56;5013737;28;20216;-82
2023/09/02 07:08:10;;;;;;;3.87;3.27;;;;;;;17.65;100.00;98451.88;5013809;28;20216;-83
2023/09/02 07:10:36;;;;;;;3.40;2.87;;;;;;;17.75;100.00;98453.56;5015002;28;20586;-79
2023/09/02 07:13:03;;;;;;;4.90;3.03;;;;;;;17.78;100.00;98455.09;5012949;28;20209;-78
2023/09/02 07:15:30;;;;;;;4.53;3.13;;;;;;;17.81;100.00;98454.84;5012612;28;20671;-78
2023/09/02 07:17:56;;;;;;;3.57;2.80;;;;;;;17.88;100.00;98464.81;5012510;28;20213;-80
2023/09/02 07:20:22;;;;;;;3.70;2.60;;;;;;;18.02;100.00;98463.50;5011851;28;20240;-80
2023/09/02 07:22:49;;;;;;;4.17;2.57;;;;;;;18.13;100.00;98461.53;5012202;28;20562;-78
2023/09/02 07:25:17;;;;;;;4.50;2.97;;;;;;;18.32;100.00;98461.50;5011949;28;20209;-78
2023/09/02 07:27:43;;;;;;;3.43;2.40;;;;;;;18.38;100.00;98463.59;5012140;28;20227;-78
2023/09/02 07:30:11;;;;;;;3.43;2.90;;;;;;;18.54;100.00;98463.78;5012241;28;20209;-78
2023/09/02 07:32:37;;;;;;;3.93;2.63;;;;;;;18.71;100.00;98467.53;5012023;28;20679;-78
2023/09/02 07:35:04;;;;;;;3.23;2.73;;;;;;;18.82;100.00;98467.31;5012293;28;20211;-78
2023/09/02 07:37:31;;;;;;;2.50;2.10;;;;;;;18.98;100.00;98473.72;5016010;28;20585;-78
2023/09/02 07:39:57;;;;;;;3.17;2.40;;;;;;;19.18;100.00;98469.94;5015770;28;20209;-78
2023/09/02 07:42:25;;;;;;;3.07;2.20;;;;;;;19.23;100.00;98472.19;5016229;28;20225;-78
2023/09/02 07:44:51;;;;;;;2.70;2.40;;;;;;;19.30;100.00;98476.78;5016508;28;20236;-79
2023/09/02 07:47:18;;;;;;;3.23;2.10;;;;;;;19.41;100.00;98479.25;5016414;28;20212;-79
2023/09/02 07:49:44;;;;;;;2.73;2.00;;;;;;;19.59;100.00;98487.28;5016482;28;20219;-79
2023/09/02 07:52:11;;;;;;;3.40;2.73;;;;;;;19.72;100.00;98475.19;5015996;28;20229;-79
2023/09/02 07:54:37;;;;;;;3.33;2.13;;;;;;;19.94;100.00;98479.22;5016071;28;20415;-79
2023/09/02 07:57:04;;;;;;;2.00;1.80;;;;;;;20.09;100.00;98473.16;5016827;28;20212;-79
2023/09/02 07:59:32;;;;;;;2.43;2.17;;;;;;;20.25;100.00;98477.81;5016576;28;20551;-79
2023/09/02 08:01:58;;;;;;;2.70;2.37;;;;;;;20.34;100.00;98479.53;5015426;28;20245;-79
2023/09/02 08:04:25;;;;;;;2.30;2.10;;;;;;;20.44;100.00;98482.97;5016172;28;20212;-80
2023/09/02 08:06:51;;;;;;;2.53;2.07;;;;;;;20.52;100.00;98483.00;5016155;28;20684;-78
2023/09/02 08:09:19;;;;;;;3.60;2.20;;;;;;;20.64;100.00;98490.63;5016240;28;20205;-82
2023/09/02 08:11:45;;;;;;;3.00;2.23;;;;;;;20.72;100.00;98482.59;5018876;28;20235;-79
2023/09/02 08:14:12;;;;;;;2.43;2.07;;;;;;;20.79;100.00;98480.94;5019073;28;20223;-79
2023/09/02 08:16:40;;;;;;;3.27;2.20;;;;;;;20.92;100.00;98480.56;5019331;28;20237;-79
2023/09/02 08:19:06;;;;;;;3.60;2.20;;;;;;;20.97;100.00;98475.53;5018650;28;20209;-78
2023/09/02 08:21:33;;;;;;;4.73;2.10;;;;;;;21.10;100.00;98476.72;5017930;28;20260;-78
2023/09/02 08:23:59;;;;;;;2.37;1.93;;;;;;;21.21;100.00;98481.81;5018331;28;20224;-79
2023/09/02 08:26:26;;;;;;;2.30;1.83;;;;;;;21.31;100.00;98478.97;5018361;28;20209;-78
2023/09/02 08:28:52;;;;;;;3.03;2.07;;;;;;;21.45;100.00;98475.69;5017275;28;20213;-80
2023/09/02 08:31:19;;;;;;;2.77;2.13;;;;;;;21.50;100.00;98482.22;5016865;28;20229;-80
2023/09/02 08:33:47;;;;;;;3.43;2.10;;;;;;;21.55;100.00;98481.72;5016870;28;20211;-79
2023/09/02 08:36:17;;;;;;;2.90;2.23;;;;;;;21.54;100.00;98483.59;5017331;28;20212;-79
2023/09/02 08:38:43;;;;;;;2.20;1.90;;;;;;;21.54;100.00;98480.91;5017823;28;20213;-79
2023/09/02 08:41:13;;;;;;;2.77;2.30;;;;;;;21.58;100.00;98470.66;5016754;28;20798;-80
2023/09/02 08:43:41;;;;;;;2.25;2.00;;;;;;;21.72;100.00;98472.69;5016960;28;20443;-79
2023/09/02 08:46:10;;;;;;;2.63;2.20;;;;;;;21.80;100.00;98470.00;5017913;28;20217;-79
2023/09/02 08:48:42;;;;;;;2.73;2.03;;;;;;;21.89;100.00;98485.97;5017891;28;20216;-81
2023/09/02 08:51:11;;;;;;;2.50;2.00;;;;;;;21.95;100.00;98473.72;5017555;28;20222;-80
2023/09/02 08:53:40;;;;;;;2.90;1.90;;;;;;;22.04;100.00;98484.31;5017006;28;20581;-82
2023/09/02 08:56:08;;;;;;;3.57;2.20;;;;;;;22.14;100.00;98479.56;5016170;28;20205;-81
2023/09/02 08:58:37;;;;;;;2.83;1.70;;;;;;;22.23;100.00;98493.88;5016057;28;20311;-82
2023/09/02 09:01:03;;;;;;;2.03;1.83;;;;;;;22.28;100.00;98488.81;5016113;28;20233;-79
2023/09/02 09:03:32;;;;;;;2.87;1.63;;;;;;;22.37;100.00;98485.94;5016379;28;20193;-79
2023/09/02 09:06:02;;;;;;;2.10;1.90;;;;;;;22.51;100.00;98503.31;5017081;28;20214;-81
2023/09/02 09:08:31;;;;;;;1.87;1.63;;;;;;;22.60;97.84;98483.41;5017506;28;20268;-81
2023/09/02 09:10:58;;;;;;;2.43;1.60;;;;;;;22.67;96.42;98485.25;5017504;28;20229;-81
2023/09/02 09:13:26;;;;;;;2.40;1.80;;;;;;;22.73;96.08;98487.25;5018374;28;20233;-81
2023/09/02 09:15:56;;;;;;;1.47;1.37;;;;;;;22.87;99.53;98494.59;5017198;28;20220;-81
2023/09/02 09:18:22;;;;;;;2.27;1.70;;;;;;;22.92;98.76;98492.22;5016978;28;20221;-81
2023/09/02 09:20:49;;;;;;;2.50;1.70;;;;;;;22.95;95.74;98486.50;5016135;28;20233;-81
2023/09/02 09:23:15;;;;;;;2.37;1.90;;;;;;;23.06;94.56;98483.44;5015809;28;20279;-81
2023/09/02 09:25:44;;;;;;;2.93;1.77;;;;;;;23.21;94.67;98491.63;5016112;28;20215;-81
2023/09/02 09:28:12;;;;;;;2.23;1.67;;;;;;;23.28;93.75;98493.44;5023132;28;20252;-79
2023/09/02 09:30:39;;;;;;;1.87;1.50;;;;;;;23.27;89.95;98480.97;5029119;28;20293;-78
2023/09/02 09:33:07;;;;;;;2.60;1.70;;;;;;;23.40;93.88;98505.53;5030994;28;20209;-81
2023/09/02 09:35:34;;;;;;;2.30;1.87;;;;;;;23.47;85.74;98475.97;5026078;28;20554;-81
2023/09/02 09:38:01;;;;;;;3.23;2.00;;;;;;;23.45;86.24;98486.94;5026058;28;20219;-82
2023/09/02 09:40:32;;;;;;;3.43;1.93;;;;;;;23.56;89.93;98496.47;5029367;28;20236;-80
2023/09/02 09:43:01;;;;;;;2.20;1.77;;;;;;;23.51;86.70;98483.53;5020819;28;20287;-81
2023/09/02 09:45:28;;;;;;;2.60;1.57;;;;;;;23.53;85.58;98475.28;5017778;28;20209;-79
2023/09/02 09:47:58;;;;;;;1.73;1.60;;;;;;;23.63;88.34;98490.19;5016105;28;20213;-81
2023/09/02 09:50:24;;;;;;;2.10;1.90;;;;;;;23.72;88.87;98481.00;5015007;28;20233;-81
2023/09/02 09:53:02;;;;;;;3.17;1.80;;;;;;;23.85;86.80;98475.88;5015603;28;20676;-81
2023/09/02 09:55:29;;;;;;;3.20;1.77;;;;;;;23.92;87.88;98478.72;5015449;28;20604;-81
2023/09/02 09:57:57;;;;;;;2.20;1.70;;;;;;;24.00;86.74;98476.78;5015477;28;20224;-80
2023/09/02 10:00:25;;;;;;;3.47;2.07;;;;;;;24.01;84.19;98470.34;5014625;28;20706;-81
2023/09/02 10:02:52;;;;;;;4.03;2.00;;;;;;;24.06;82.27;98457.16;5015296;28;20229;-81
2023/09/02 10:05:25;;;;;;;5.67;2.30;;;;;;;24.23;87.91;98479.44;5015379;28;20209;-81
2023/09/02 10:07:59;;;;;;;2.73;1.70;;;;;;;24.35;85.38;98467.19;5015834;28;20213;-80
2023/09/02 10:10:31;;;;;;;4.17;1.97;;;;;;;24.34;79.91;98450.16;5015319;28;20251;-81
2023/09/02 10:12:58;;;;;;;2.10;1.63;;;;;;;24.45;83.52;98471.28;5015652;28;20205;-81
2023/09/02 10:15:27;;;;;;;1.80;1.47;;;;;;;24.47;83.67;98465.69;5015507;28;20572;-81
2023/09/02 10:17:58;;;;;;;4.07;1.67;;;;;;;24.58;86.68;98485.06;5015553;28;20253;-81
2023/09/02 10:20:27;;;;;;;2.10;1.47;;;;;;;24.54;82.90;98466.63;5014558;28;20225;-81
2023/09/02 10:22:55;;;;;;;3.83;1.80;;;;;;;24.67;84.31;98483.09;5015098;28;20715;-81
2023/09/02 10:25:28;;;;;;;2.47;1.90;;;;;;;24.71;82.54;98471.72;5015392;28;20209;-81
2023/09/02 10:28:03;;;;;;;1.93;1.40;;;;;;;24.78;81.81;98467.25;5015525;28;20779;-81
2023/09/02 10:30:42;;;;;;;1.97;1.53;;;;;;;24.81;80.07;98464.16;5014837;28;20244;-81
2023/09/02 10:33:13;;;;;;;2.10;1.47;;;;;;;24.89;79.09;98463.22;5015134;28;20304;-81
2023/09/02 10:35:44;;;;;;;3.93;1.67;;;;;;;24.91;75.45;98448.50;5015051;28;20222;-81
2023/09/02 10:38:16;;;;;;;1.80;1.27;;;;;;;24.89;72.22;98431.63;5015034;28;20199;-81
2023/09/02 10:40:49;;;;;;;2.50;1.40;;;;;;;24.81;71.13;98439.81;5015048;28;20668;-81
2023/09/02 10:43:17;;;;;;;1.83;1.53;;;;;;;24.95;72.69;98441.69;5014646;28;20229;-81
2023/09/02 10:45:46;;;;;;;1.73;1.63;;;;;;;25.04;73.70;98448.66;5014987;28;20213;-81
2023/09/02 10:48:14;;;;;;;1.50;1.40;;;;;;;25.13;77.80;98466.47;5015133;28;20216;-81
2023/09/02 10:50:41;;;;;;;2.03;1.70;;;;;;;25.24;73.09;98438.94;5014565;28;20221;-81
2023/09/02 10:53:07;;;;;;;3.53;1.57;;;;;;;25.26;68.44;98417.13;5014606;28;20212;-81
2023/09/02 10:56:01;;;;;;;1.70;1.47;;;;;;;25.33;69.19;98427.00;5014570;28;20605;-81
2023/09/02 10:58:27;;;;;;;2.07;1.37;;;;;;;25.43;65.52;98399.63;5014835;28;20221;-81
2023/09/02 11:00:55;;;;;;;1.87;1.50;;;;;;;25.36;69.48;98426.59;5014318;28;20241;-81
2023/09/02 11:03:45;;;;;;;2.00;1.40;;;;;;;25.41;64.70;98399.81;5014182;28;20722;-81
2023/09/02 11:06:14;;;;;;;1.70;1.40;;;;;;;25.39;62.60;98388.34;5014120;28;20205;-81
2023/09/02 11:08:43;;;;;;;2.00;1.33;;;;;;;25.44;64.35;98407.56;5014343;28;20209;-81
2023/09/02 11:11:10;;;;;;;1.40;1.30;;;;;;;25.40;67.65;98418.94;5017590;28;20625;-81
2023/09/02 11:14:10;;;;;;;2.80;1.20;;;;;;;25.54;65.09;98407.22;5018467;28;20216;-81
2023/09/02 11:16:40;;;;;;;2.17;1.10;;;;;;;25.72;61.59;98385.94;5018847;28;20194;-81
2023/09/02 11:19:08;;;;;;;2.20;1.70;;;;;;;25.74;61.87;98392.84;5018915;28;20213;-81
2023/09/02 11:21:39;;;;;;;2.33;1.27;;;;;;;25.67;60.72;98386.50;5018348;28;20264;-81
2023/09/02 11:24:16;;;;;;;1.50;1.20;;;;;;;25.84;63.88;98409.59;5018471;28;20275;-81
2023/09/02 11:26:55;;;;;;;1.53;1.30;;;;;;;25.89;63.28;98407.13;5018998;28;20213;-81
2023/09/02 11:29:23;;;;;;;1.20;1.10;;;;;;;25.89;62.40;98390.88;5018643;28;20236;-81
2023/09/02 11:31:58;;;;;;;1.40;1.17;;;;;;;25.89;61.43;98385.47;5017902;28;20240;-81